createdAt,value
2018-07-03T00:00:53.604Z,64.31
2018-07-03T00:03:24.048Z,64.81
2018-07-03T00:05:53.453Z,65.10
2018-07-03T00:08:22.764Z,65.54
2018-07-03T00:10:52.079Z,65.86
2018-07-03T00:13:21.400Z,65.65
2018-07-03T00:15:50.716Z,66.01
2018-07-03T00:18:20.048Z,66.37
2018-07-03T00:20:49.375Z,67.08
2018-07-03T00:23:18.689Z,67.22
2018-07-03T00:25:48.032Z,67.05
2018-07-03T00:28:17.347Z,68.27
2018-07-03T00:30:46.684Z,68.67
2018-07-03T00:33:16.051Z,68.60
2018-07-03T00:35:45.372Z,68.46
2018-07-03T00:38:14.699Z,67.43
2018-07-03T00:40:43.992Z,67.85
2018-07-03T00:43:13.344Z,68.57
2018-07-03T00:45:42.645Z,68.11
2018-07-03T00:48:11.968Z,68.04
2018-07-03T00:50:41.316Z,68.04
2018-07-03T00:53:10.617Z,67.33
2018-07-03T00:55:39.956Z,68.33
2018-07-03T00:58:09.288Z,67.88
2018-07-03T01:00:38.604Z,68.85
2018-07-03T01:03:07.944Z,68.45
2018-07-03T01:05:37.269Z,69.17
2018-07-03T01:08:06.598Z,70.21
2018-07-03T01:10:35.914Z,70.64
2018-07-03T01:13:05.315Z,70.31
2018-07-03T01:15:34.620Z,70.25
2018-07-03T01:18:03.928Z,71.21
2018-07-03T01:20:33.251Z,70.89
2018-07-03T01:23:02.585Z,71.99
2018-07-03T01:25:31.895Z,71.64
2018-07-03T01:28:01.216Z,71.55
2018-07-03T01:30:30.520Z,71.38
2018-07-03T01:32:59.852Z,72.67
2018-07-03T01:35:29.160Z,73.17
2018-07-03T01:37:58.471Z,74.39
2018-07-03T01:40:27.800Z,74.66
2018-07-03T01:42:57.131Z,74.68
2018-07-03T01:45:26.483Z,74.10
2018-07-03T01:47:55.797Z,73.75
2018-07-03T01:50:25.097Z,73.20
2018-07-03T01:52:54.688Z,72.90
2018-07-03T01:55:24.033Z,74.06
2018-07-03T01:57:53.377Z,73.14
2018-07-03T02:00:22.697Z,73.27
2018-07-03T02:02:52.040Z,73.03
2018-07-03T02:05:21.360Z,72.82
2018-07-03T02:07:53.121Z,73.41
2018-07-03T02:10:22.483Z,72.89
2018-07-03T02:12:51.819Z,72.60
2018-07-03T02:15:21.266Z,73.52
2018-07-03T02:17:50.592Z,72.77
2018-07-03T02:20:19.912Z,72.75
2018-07-03T02:22:49.227Z,73.51
2018-07-03T02:25:18.555Z,73.61
2018-07-03T02:27:47.865Z,73.77
2018-07-03T02:30:17.260Z,73.60
2018-07-03T02:32:46.574Z,74.64
2018-07-03T02:35:15.925Z,75.02
2018-07-03T02:37:45.218Z,75.20
2018-07-03T02:40:14.531Z,75.33
2018-07-03T02:42:43.900Z,75.43
2018-07-03T02:48:27.548Z,75.64
2018-07-03T02:50:56.896Z,76.68
2018-07-03T02:53:26.264Z,76.81
2018-07-03T02:55:55.669Z,76.26
2018-07-03T02:58:25.116Z,76.37
2018-07-03T03:00:54.436Z,75.03
2018-07-03T03:03:23.748Z,74.89
2018-07-03T03:05:53.235Z,75.61
2018-07-03T03:08:22.630Z,75.89
2018-07-03T03:10:51.964Z,76.57
2018-07-03T03:13:21.283Z,76.08
2018-07-03T03:15:50.617Z,76.25
2018-07-03T03:18:19.948Z,76.68
2018-07-03T03:20:49.257Z,76.83
2018-07-03T03:23:18.571Z,76.76
2018-07-03T03:25:47.924Z,77.13
2018-07-03T03:28:17.243Z,77.35
2018-07-03T03:30:46.560Z,77.14
2018-07-03T03:33:15.888Z,77.04
2018-07-03T03:35:45.194Z,77.10
2018-07-03T03:38:14.540Z,76.82
2018-07-03T03:40:43.857Z,77.05
2018-07-03T03:43:13.236Z,77.43
2018-07-03T03:45:42.536Z,77.74
2018-07-03T03:48:11.848Z,77.96
2018-07-03T03:50:41.208Z,77.95
2018-07-03T03:53:10.532Z,78.31
2018-07-03T03:55:39.860Z,77.50
2018-07-03T03:58:09.179Z,77.03
2018-07-03T04:00:38.508Z,77.07
2018-07-03T04:03:07.837Z,77.08
2018-07-03T04:05:37.144Z,77.04
2018-07-03T04:08:06.696Z,77.14
2018-07-03T04:10:36.037Z,76.76
2018-07-03T04:13:05.340Z,77.10
2018-07-03T04:15:34.700Z,76.30
2018-07-03T04:18:04.061Z,76.21
2018-07-03T04:20:33.376Z,75.86
2018-07-03T04:23:02.735Z,75.10
2018-07-03T04:25:32.082Z,75.31
2018-07-03T04:28:01.396Z,75.84
2018-07-03T04:30:30.936Z,76.60
2018-07-03T04:33:00.272Z,76.75
2018-07-03T04:35:29.600Z,77.28
2018-07-03T04:37:58.900Z,76.79
2018-07-03T04:40:28.220Z,75.97
2018-07-03T04:42:57.587Z,75.15
2018-07-03T04:45:26.920Z,75.22
2018-07-03T04:47:56.257Z,75.65
2018-07-03T04:50:25.557Z,75.17
2018-07-03T04:52:55.331Z,74.11
2018-07-03T04:55:24.648Z,74.80
2018-07-03T04:57:53.972Z,74.04
2018-07-03T05:00:23.319Z,74.48
2018-07-03T05:02:52.636Z,74.78
2018-07-03T05:05:21.989Z,74.16
2018-07-03T05:07:51.309Z,73.44
2018-07-03T05:10:20.673Z,73.34
2018-07-03T05:12:49.988Z,73.55
2018-07-03T05:15:19.708Z,73.16
2018-07-03T05:17:49.183Z,72.89
2018-07-03T05:20:18.493Z,71.48
2018-07-03T05:22:47.816Z,71.76
2018-07-03T05:25:17.154Z,71.85
2018-07-03T05:27:46.496Z,70.07
2018-07-03T05:30:15.852Z,70.35
2018-07-03T05:32:45.153Z,71.03
2018-07-03T05:35:14.552Z,70.43
2018-07-03T05:37:43.872Z,70.51
2018-07-03T05:40:13.204Z,68.39
2018-07-03T05:42:42.510Z,68.91
2018-07-03T05:45:11.849Z,68.85
2018-07-03T05:47:41.172Z,67.54
2018-07-03T05:50:10.510Z,67.70
2018-07-03T05:52:39.832Z,67.18
2018-07-03T05:55:09.190Z,64.99
2018-07-03T05:57:38.540Z,64.83
2018-07-03T06:00:08.059Z,65.71
2018-07-03T06:02:37.402Z,66.07
2018-07-03T06:05:06.725Z,65.31
2018-07-03T06:07:36.081Z,64.54
2018-07-03T06:10:05.691Z,64.78
2018-07-03T06:12:35.004Z,63.53
2018-07-03T06:15:04.531Z,62.56
2018-07-03T06:17:33.810Z,62.20
2018-07-03T06:20:03.169Z,61.73
2018-07-03T06:22:32.682Z,63.95
2018-07-03T06:25:01.800Z,64.88
2018-07-03T06:27:31.096Z,64.61
2018-07-03T06:30:00.410Z,64.73
2018-07-03T06:32:29.747Z,63.91
2018-07-03T06:34:59.088Z,64.07
2018-07-03T06:37:28.458Z,62.75
2018-07-03T06:39:57.775Z,61.71
2018-07-03T06:42:27.083Z,60.72
2018-07-03T06:44:56.445Z,60.46
2018-07-03T06:47:25.796Z,58.97
2018-07-03T06:49:55.044Z,59.34
2018-07-03T06:52:24.365Z,60.06
2018-07-03T06:54:53.684Z,57.85
2018-07-03T06:57:23.065Z,58.47
2018-07-03T06:59:52.380Z,58.16
2018-07-03T07:02:21.745Z,57.78
2018-07-03T07:04:51.060Z,58.15
2018-07-03T07:07:20.437Z,56.21
2018-07-03T07:09:49.780Z,53.75
2018-07-03T07:12:19.096Z,52.96
2018-07-03T07:14:48.408Z,54.37
2018-07-03T07:17:17.724Z,55.51
2018-07-03T07:19:47.052Z,54.62
2018-07-03T07:22:16.397Z,53.03
2018-07-03T07:24:45.712Z,52.93
2018-07-03T07:27:15.044Z,54.15
2018-07-03T07:29:44.372Z,53.10
2018-07-03T07:32:13.701Z,52.72
2018-07-03T07:34:43.032Z,51.80
2018-07-03T07:37:12.401Z,49.26
2018-07-03T07:39:41.703Z,50.22
2018-07-03T07:42:11.052Z,48.80
2018-07-03T07:44:40.376Z,49.14
2018-07-03T07:47:09.756Z,47.12
2018-07-03T07:49:39.073Z,46.32
2018-07-03T07:52:08.461Z,46.53
2018-07-03T07:54:37.784Z,46.19
2018-07-03T07:57:07.104Z,45.36
2018-07-03T07:59:36.471Z,44.14
2018-07-03T08:02:06.086Z,42.51
2018-07-03T08:04:35.396Z,43.43
2018-07-03T08:07:04.768Z,42.98
2018-07-03T08:09:34.097Z,43.42
2018-07-03T08:12:03.518Z,43.01
2018-07-03T08:14:32.840Z,43.99
2018-07-03T08:17:02.152Z,42.45
2018-07-03T08:19:31.488Z,42.40
2018-07-03T08:22:00.800Z,41.95
2018-07-03T08:24:30.149Z,38.79
2018-07-03T08:26:59.479Z,37.48
2018-07-03T08:29:28.804Z,38.62
2018-07-03T08:31:58.148Z,37.65
2018-07-03T08:34:27.519Z,40.59
2018-07-03T08:36:56.838Z,40.58
2018-07-03T08:39:26.495Z,39.63
2018-07-03T08:41:56.164Z,38.29
2018-07-03T08:44:25.499Z,36.30
2018-07-03T08:46:54.885Z,38.32
2018-07-03T08:49:24.226Z,38.49
2018-07-03T08:51:53.601Z,37.29
2018-07-03T08:54:22.871Z,38.43
2018-07-03T08:56:52.253Z,39.27
2018-07-03T08:59:21.567Z,37.03
2018-07-03T09:01:50.868Z,35.10
2018-07-03T09:04:20.466Z,36.12
2018-07-03T09:06:50.017Z,36.26
2018-07-03T09:09:19.333Z,35.88
2018-07-03T09:11:48.973Z,36.82
2018-07-03T09:14:18.347Z,36.64
2018-07-03T09:16:47.684Z,35.38
2018-07-03T09:19:17.014Z,35.27
2018-07-03T09:21:46.328Z,35.30
2018-07-03T09:24:15.657Z,36.65
2018-07-03T09:26:45.021Z,39.23
2018-07-03T09:29:14.308Z,36.85
2018-07-03T09:31:43.652Z,35.77
2018-07-03T09:34:13.035Z,36.59
2018-07-03T09:36:42.358Z,35.41
2018-07-03T09:39:11.776Z,39.44
2018-07-03T09:41:41.101Z,36.57
2018-07-03T09:44:10.905Z,37.34
2018-07-03T09:46:40.280Z,35.64
2018-07-03T09:49:09.609Z,36.25
2018-07-03T09:51:38.912Z,37.27
2018-07-03T09:54:08.276Z,35.53
2018-07-03T09:56:37.597Z,35.77
2018-07-03T09:59:06.916Z,35.89
2018-07-03T10:01:36.236Z,36.41
2018-07-03T10:04:05.599Z,34.93
2018-07-03T10:06:34.986Z,34.17
2018-07-03T10:09:06.410Z,35.61
2018-07-03T10:11:35.709Z,32.75
2018-07-03T10:14:05.049Z,34.78
2018-07-03T10:16:34.392Z,35.79
2018-07-03T10:19:03.756Z,33.55
2018-07-03T10:21:33.079Z,34.42
2018-07-03T10:24:02.451Z,33.93
2018-07-03T10:26:31.822Z,34.59
2018-07-03T10:29:01.476Z,35.33
2018-07-03T10:31:31.127Z,35.38
2018-07-03T10:34:00.476Z,35.77
2018-07-03T10:36:29.804Z,34.49
2018-07-03T10:38:59.128Z,33.70
2018-07-03T10:41:28.460Z,35.69
2018-07-03T10:43:57.759Z,32.95
2018-07-03T10:46:28.232Z,33.92
2018-07-03T10:48:57.622Z,33.89
2018-07-03T10:51:26.939Z,34.05
2018-07-03T10:53:56.254Z,34.43
2018-07-03T10:56:25.560Z,33.99
2018-07-03T10:58:54.937Z,33.91
2018-07-03T11:01:24.257Z,35.12
2018-07-03T11:03:53.575Z,34.10
2018-07-03T11:06:22.892Z,32.40
2018-07-03T11:08:52.241Z,33.53
2018-07-03T11:11:21.602Z,32.76
2018-07-03T11:13:50.955Z,33.18
2018-07-03T11:16:20.276Z,35.38
2018-07-03T11:18:49.612Z,33.48
2018-07-03T11:21:18.953Z,33.60
2018-07-03T11:23:48.268Z,32.91
2018-07-03T11:26:17.593Z,31.38
2018-07-03T11:28:46.937Z,32.17
2018-07-03T11:31:16.245Z,32.60
2018-07-03T11:33:45.612Z,33.49
2018-07-03T11:36:14.898Z,31.22
2018-07-03T11:38:44.242Z,33.35
2018-07-03T11:41:13.548Z,30.91
2018-07-03T11:43:42.892Z,32.52
2018-07-03T11:46:12.226Z,31.62
2018-07-03T11:48:41.564Z,32.65
2018-07-03T11:51:10.890Z,31.40
2018-07-03T11:53:40.261Z,31.16
2018-07-03T11:56:09.559Z,29.13
2018-07-03T11:58:38.892Z,30.04
2018-07-03T12:01:08.249Z,29.13
2018-07-03T12:03:37.565Z,29.50
2018-07-03T12:06:06.896Z,29.51
2018-07-03T12:08:36.196Z,30.95
2018-07-03T12:11:05.534Z,29.94
2018-07-03T12:13:34.824Z,29.01
2018-07-03T12:16:04.166Z,30.92
2018-07-03T12:18:38.701Z,30.77
2018-07-03T12:21:08.100Z,29.63
2018-07-03T12:23:37.431Z,29.00
2018-07-03T12:26:07.002Z,28.90
2018-07-03T12:28:36.357Z,29.99
2018-07-03T12:31:05.678Z,29.77
2018-07-03T12:33:34.999Z,28.35
2018-07-03T12:36:04.896Z,30.47
2018-07-03T12:38:34.204Z,30.10
2018-07-03T12:41:03.549Z,26.04
2018-07-03T12:43:32.883Z,27.60
2018-07-03T12:46:02.202Z,29.52
2018-07-03T12:48:31.515Z,29.23
2018-07-03T12:51:00.878Z,25.88
2018-07-03T12:53:30.244Z,28.47
2018-07-03T12:55:59.621Z,28.43
2018-07-03T12:58:29.174Z,29.92
2018-07-03T13:00:58.545Z,26.47
2018-07-03T13:03:27.855Z,27.22
2018-07-03T13:05:57.203Z,30.30
2018-07-03T13:08:26.524Z,28.55
2018-07-03T13:10:55.849Z,28.08
2018-07-03T13:13:25.457Z,26.62
2018-07-03T13:15:54.857Z,26.52
2018-07-03T13:18:24.547Z,25.65
2018-07-03T13:20:54.793Z,27.92
2018-07-03T13:23:25.383Z,26.61
2018-07-03T13:25:54.735Z,28.13
2018-07-03T13:28:24.079Z,27.30
2018-07-03T13:30:53.436Z,25.61
2018-07-03T13:33:22.777Z,24.69
2018-07-03T13:35:52.103Z,25.00
2018-07-03T13:38:21.468Z,26.50
2018-07-03T13:40:50.804Z,26.49
2018-07-03T13:43:20.960Z,27.16
2018-07-03T13:45:50.297Z,26.53
2018-07-03T13:48:19.729Z,25.82
2018-07-03T13:50:48.942Z,25.79
2018-07-03T13:53:18.272Z,25.62
2018-07-03T13:55:47.600Z,25.08
2018-07-03T13:58:16.892Z,24.74
2018-07-03T14:00:46.192Z,23.38
2018-07-03T14:03:15.551Z,23.09
2018-07-03T14:05:44.864Z,23.36
2018-07-03T14:08:14.208Z,20.39
2018-07-03T14:10:43.527Z,21.52
2018-07-03T14:13:12.841Z,21.17
2018-07-03T14:15:42.192Z,20.82
2018-07-03T14:18:11.523Z,19.42
2018-07-03T14:20:40.896Z,19.83
2018-07-03T14:23:10.220Z,18.89
2018-07-03T14:25:39.785Z,19.03
2018-07-03T14:28:09.139Z,19.37
2018-07-03T14:30:38.470Z,20.32
2018-07-03T14:33:07.781Z,19.16
2018-07-03T14:35:37.095Z,20.27
2018-07-03T14:38:06.952Z,19.94
2018-07-03T14:40:36.302Z,20.17
2018-07-03T14:43:05.632Z,18.14
2018-07-03T14:45:34.968Z,19.17
2018-07-03T14:48:04.320Z,19.56
2018-07-03T14:50:33.654Z,19.13
2018-07-03T14:53:02.933Z,18.74
2018-07-03T14:55:32.264Z,18.48
2018-07-03T14:58:01.784Z,18.85
2018-07-03T15:00:31.079Z,18.72
2018-07-03T15:03:00.450Z,17.78
2018-07-03T15:05:29.752Z,17.89
2018-07-03T15:07:59.068Z,17.89
2018-07-03T15:10:28.380Z,18.37
2018-07-03T15:12:57.740Z,17.63
2018-07-03T15:15:27.616Z,17.51
2018-07-03T15:17:56.930Z,18.30
2018-07-03T15:20:26.266Z,17.47
2018-07-03T15:22:55.608Z,17.63
2018-07-03T15:25:24.932Z,18.25
2018-07-03T15:27:54.276Z,17.56
2018-07-03T15:30:23.599Z,17.82
2018-07-03T15:32:52.928Z,19.22
2018-07-03T15:35:22.253Z,18.79
2018-07-03T15:37:51.596Z,18.46
2018-07-03T15:40:21.016Z,18.72
2018-07-03T15:42:50.336Z,18.25
2018-07-03T15:45:19.661Z,18.50
2018-07-03T15:47:48.992Z,17.50
2018-07-03T15:50:18.336Z,17.95
2018-07-03T15:52:47.653Z,16.75
2018-07-03T15:55:16.948Z,17.16
2018-07-03T15:57:46.299Z,18.56
2018-07-03T16:00:16.168Z,17.70
2018-07-03T16:05:06.437Z,16.75
2018-07-03T16:08:14.760Z,17.05
2018-07-03T16:10:44.394Z,17.10
2018-07-03T16:13:13.732Z,16.50
2018-07-03T16:15:43.063Z,17.39
2018-07-03T16:18:12.416Z,16.64
2018-07-03T16:20:42.563Z,17.27
2018-07-03T16:23:11.978Z,16.13
2018-07-03T16:25:41.294Z,16.21
2018-07-03T16:28:10.636Z,16.68
2018-07-03T16:30:40.003Z,16.90
2018-07-03T16:33:09.343Z,16.93
2018-07-03T16:35:38.637Z,17.16
2018-07-03T16:38:08.175Z,17.47
2018-07-03T16:40:37.515Z,16.91
2018-07-03T16:43:06.841Z,16.56
2018-07-03T16:45:36.216Z,18.75
2018-07-03T16:48:05.494Z,17.11
2018-07-03T16:50:34.840Z,16.37
2018-07-03T16:53:04.177Z,16.53
2018-07-03T16:55:33.481Z,16.21
2018-07-03T16:58:02.919Z,16.64
2018-07-03T17:00:32.281Z,17.09
2018-07-03T17:03:01.594Z,15.94
2018-07-03T17:05:30.896Z,16.12
2018-07-03T17:08:00.209Z,16.78
2018-07-03T17:10:29.520Z,16.60
2018-07-03T17:12:58.836Z,17.64
2018-07-03T17:15:28.161Z,17.99
2018-07-03T17:17:57.479Z,17.34
2018-07-03T17:20:26.797Z,17.36
2018-07-03T17:22:56.369Z,17.25
2018-07-03T17:25:25.706Z,17.01
2018-07-03T17:27:55.033Z,16.55
2018-07-03T17:30:24.365Z,18.09
2018-07-03T17:32:53.695Z,16.63
2018-07-03T17:35:23.016Z,16.96
2018-07-03T17:37:52.399Z,17.17
2018-07-03T17:40:38.438Z,17.19
2018-07-03T17:44:22.128Z,16.21
2018-07-03T17:46:51.459Z,16.95
2018-07-03T17:49:20.775Z,16.16
2018-07-03T17:51:50.140Z,17.05
2018-07-03T17:54:19.472Z,18.50
2018-07-03T17:56:48.783Z,17.38
2018-07-03T17:59:18.209Z,18.12
2018-07-03T18:01:47.486Z,20.33
2018-07-03T18:04:16.849Z,21.13
2018-07-03T18:06:46.204Z,23.29
2018-07-03T18:09:15.531Z,23.96
2018-07-03T18:11:44.877Z,25.75
2018-07-03T18:14:14.240Z,25.54
2018-07-03T18:16:43.576Z,27.60
2018-07-03T18:19:18.172Z,29.86
2018-07-03T18:21:47.527Z,32.07
2018-07-03T18:24:16.847Z,32.70
2018-07-03T18:26:46.180Z,35.09
2018-07-03T18:29:15.505Z,36.69
2018-07-03T18:31:44.832Z,34.27
2018-07-03T18:34:14.185Z,35.41
2018-07-03T18:36:43.592Z,34.16
2018-07-03T18:39:13.001Z,32.26
2018-07-03T18:41:42.349Z,35.96
2018-07-03T18:44:11.705Z,34.87
2018-07-03T18:46:41.012Z,33.43
2018-07-03T18:49:10.400Z,35.28
2018-07-03T18:51:39.764Z,33.07
2018-07-03T18:54:09.096Z,38.00
2018-07-03T18:56:38.423Z,41.93
2018-07-03T18:59:07.753Z,38.97
2018-07-03T19:01:37.052Z,40.54
2018-07-03T19:04:06.658Z,39.34
2018-07-03T19:06:35.996Z,40.99
2018-07-03T19:09:06.884Z,42.54
2018-07-03T19:11:36.525Z,42.75
2018-07-03T19:14:05.867Z,43.45
2018-07-03T19:16:35.197Z,43.86
2018-07-03T19:19:04.530Z,43.52
2018-07-03T19:21:33.868Z,43.76
2018-07-03T19:24:03.276Z,43.95
2018-07-03T19:26:32.631Z,44.83
2018-07-03T19:29:01.938Z,45.40
2018-07-03T19:31:31.283Z,44.68
2018-07-03T19:34:00.650Z,44.35
2018-07-03T19:36:29.987Z,46.07
2018-07-03T19:38:59.428Z,46.47
2018-07-03T19:41:28.737Z,47.81
2018-07-03T19:43:58.176Z,47.04
2018-07-03T19:46:27.542Z,48.13
2018-07-03T19:48:56.896Z,43.69
2018-07-03T19:51:26.221Z,45.24
2018-07-03T19:53:55.597Z,47.42
2018-07-03T19:56:24.969Z,45.94
2018-07-03T19:58:54.272Z,46.32
2018-07-03T20:01:23.689Z,47.64
2018-07-03T20:03:53.016Z,47.10
2018-07-03T20:06:22.350Z,47.11
2018-07-03T20:08:51.767Z,47.29
2018-07-03T20:11:21.121Z,45.67
2018-07-03T20:13:50.527Z,46.46
2018-07-03T20:16:20.057Z,44.93
2018-07-03T20:18:49.424Z,44.48
2018-07-03T20:21:18.927Z,44.24
2018-07-03T20:23:48.271Z,45.32
2018-07-03T20:26:17.687Z,44.29
2018-07-03T20:28:47.047Z,43.83
2018-07-03T20:31:16.482Z,43.41
2018-07-03T20:33:45.848Z,43.79
2018-07-03T20:36:15.160Z,43.98
2018-07-03T20:38:44.506Z,44.65
2018-07-03T20:41:13.854Z,46.46
2018-07-03T20:43:43.296Z,45.83
2018-07-03T20:46:12.658Z,46.17
2018-07-03T20:48:41.995Z,46.70
2018-07-03T20:51:11.365Z,46.01
2018-07-03T20:53:40.750Z,46.90
2018-07-03T20:56:10.113Z,45.84
2018-07-03T20:58:39.415Z,46.53
2018-07-03T21:01:08.895Z,47.26
2018-07-03T21:03:38.276Z,46.20
2018-07-03T21:06:07.719Z,46.86
2018-07-03T21:08:36.936Z,46.74
2018-07-03T21:11:06.468Z,49.38
2018-07-03T21:13:35.824Z,49.23
2018-07-03T21:16:05.188Z,50.04
2018-07-03T21:18:34.504Z,51.06
2018-07-03T21:21:03.868Z,51.32
2018-07-03T21:23:33.308Z,50.77
2018-07-03T21:26:02.616Z,51.71
2018-07-03T21:28:32.047Z,52.75
2018-07-03T21:31:01.389Z,53.06
2018-07-03T21:33:30.681Z,52.70
2018-07-03T21:36:00.024Z,53.70
2018-07-03T21:38:29.391Z,54.66
2018-07-03T21:40:58.648Z,55.32
2018-07-03T21:43:27.943Z,55.40
2018-07-03T21:45:57.279Z,55.57
2018-07-03T21:48:26.636Z,55.93
2018-07-03T21:50:55.968Z,56.88
2018-07-03T21:53:25.288Z,57.60
2018-07-03T21:55:54.576Z,58.38
2018-07-03T21:58:23.879Z,57.90
2018-07-03T22:00:53.237Z,58.61
2018-07-03T22:03:22.560Z,58.66
2018-07-03T22:05:51.859Z,58.72
2018-07-03T22:08:21.171Z,59.16
2018-07-03T22:10:50.487Z,59.12
2018-07-03T22:13:19.801Z,59.63
2018-07-03T22:15:49.123Z,58.95
2018-07-03T22:18:18.471Z,60.10
2018-07-03T22:20:47.801Z,60.44
2018-07-03T22:23:17.139Z,60.58
2018-07-03T22:25:46.444Z,60.29
2018-07-03T22:28:15.770Z,60.73
2018-07-03T22:30:45.089Z,61.17
2018-07-03T22:33:15.634Z,61.01
2018-07-03T22:35:45.012Z,62.56
2018-07-03T22:38:14.316Z,62.42
2018-07-03T22:40:43.632Z,62.56
2018-07-03T22:43:12.969Z,62.92
2018-07-03T22:45:42.267Z,61.70
2018-07-03T22:48:11.593Z,61.18
2018-07-03T22:50:40.937Z,61.50
2018-07-03T22:53:10.332Z,61.84
2018-07-03T22:55:39.675Z,62.87
2018-07-03T22:58:08.996Z,63.38
2018-07-03T23:00:38.330Z,63.53
2018-07-03T23:03:07.665Z,64.69
2018-07-03T23:05:36.984Z,64.69
2018-07-03T23:08:06.525Z,64.84
2018-07-03T23:10:35.846Z,65.93
2018-07-03T23:13:05.159Z,66.61
2018-07-03T23:15:34.496Z,66.59
2018-07-03T23:18:03.811Z,66.75
2018-07-03T23:20:33.148Z,66.64
2018-07-03T23:23:02.467Z,66.67
2018-07-03T23:25:31.796Z,67.61
2018-07-03T23:28:01.141Z,68.51
2018-07-03T23:30:30.447Z,69.42
2018-07-03T23:32:59.784Z,68.85
2018-07-03T23:35:29.132Z,68.43
2018-07-03T23:37:58.487Z,68.83
2018-07-03T23:40:27.836Z,68.67
2018-07-03T23:42:57.184Z,68.45
2018-07-03T23:45:34.146Z,68.49
2018-07-03T23:48:20.253Z,68.30
2018-07-03T23:51:06.472Z,69.09
2018-07-03T23:53:52.692Z,69.43
2018-07-03T23:56:39.707Z,68.99
2018-07-03T23:59:25.772Z,69.43
